sensor_id;sensor_type;location;lat;lon;timestamp;pressure;altitude;pressure_sealevel;temperature;humidity
64402;BME280;50724;42.376;23.768;2023-04-25T00:02:30;92473.47;;;7.90;100.00
64402;BME280;50724;42.376;23.768;2023-04-25T00:05:32;92459.66;;;7.98;100.00
64402;BME280;50724;42.376;23.768;2023-04-25T00:08:33;92461.09;;;8.00;100.00
64402;BME280;50724;42.376;23.768;2023-04-25T00:11:33;92457.84;;;7.98;100.00
64402;BME280;50724;42.376;23.768;2023-04-25T00:14:34;92449.41;;;7.96;100.00
64402;BME280;50724;42.376;23.768;2023-04-25T00:17:35;92449.09;;;7.99;100.00
64402;BME280;50724;42.376;23.768;2023-04-25T00:20:36;92444.66;;;8.00;100.00
64402;BME280;50724;42.376;23.768;2023-04-25T00:23:36;92444.19;;;7.96;100.00
64402;BME280;50724;42.376;23.768;2023-04-25T00:26:39;92438.00;;;7.97;100.00
64402;BME280;50724;42.376;23.768;2023-04-25T00:29:39;92429.84;;;8.00;100.00
64402;BME280;50724;42.376;23.768;2023-04-25T00:32:40;92430.16;;;8.05;100.00
64402;BME280;50724;42.376;23.768;2023-04-25T00:35:40;92425.41;;;8.17;100.00
64402;BME280;50724;42.376;23.768;2023-04-25T00:38:41;92425.38;;;8.33;100.00
64402;BME280;50724;42.376;23.768;2023-04-25T00:41:41;92432.47;;;8.47;100.00
64402;BME280;50724;42.376;23.768;2023-04-25T00:44:42;92427.31;;;8.39;100.00
64402;BME280;50724;42.376;23.768;2023-04-25T00:47:43;92427.66;;;8.36;100.00
64402;BME280;50724;42.376;23.768;2023-04-25T00:50:55;92431.41;;;8.34;100.00
64402;BME280;50724;42.376;23.768;2023-04-25T00:53:56;92423.28;;;8.20;100.00
64402;BME280;50724;42.376;23.768;2023-04-25T00:56:57;92422.03;;;8.08;100.00
64402;BME280;50724;42.376;23.768;2023-04-25T00:59:57;92417.00;;;7.99;100.00
64402;BME280;50724;42.376;23.768;2023-04-25T01:02:59;92416.97;;;8.15;100.00
64402;BME280;50724;42.376;23.768;2023-04-25T01:06:01;92413.03;;;8.19;100.00
64402;BME280;50724;42.376;23.768;2023-04-25T01:09:02;92407.56;;;8.06;100.00
64402;BME280;50724;42.376;23.768;2023-04-25T01:12:03;92423.38;;;7.96;100.00
64402;BME280;50724;42.376;23.768;2023-04-25T01:15:04;92425.00;;;7.89;100.00
64402;BME280;50724;42.376;23.768;2023-04-25T01:18:05;92412.81;;;7.82;100.00
64402;BME280;50724;42.376;23.768;2023-04-25T01:21:10;92398.03;;;7.74;100.00
64402;BME280;50724;42.376;23.768;2023-04-25T01:24:12;92391.13;;;7.97;100.00
64402;BME280;50724;42.376;23.768;2023-04-25T01:27:12;92383.69;;;7.94;100.00
64402;BME280;50724;42.376;23.768;2023-04-25T01:30:13;92382.03;;;8.01;100.00
64402;BME280;50724;42.376;23.768;2023-04-25T01:33:14;92385.16;;;7.89;100.00
64402;BME280;50724;42.376;23.768;2023-04-25T01:36:15;92380.13;;;7.79;100.00
64402;BME280;50724;42.376;23.768;2023-04-25T01:39:17;92387.97;;;7.71;100.00
64402;BME280;50724;42.376;23.768;2023-04-25T01:42:17;92379.53;;;7.61;100.00
64402;BME280;50724;42.376;23.768;2023-04-25T01:45:18;92358.50;;;7.79;100.00
64402;BME280;50724;42.376;23.768;2023-04-25T01:48:19;92349.53;;;7.89;100.00
64402;BME280;50724;42.376;23.768;2023-04-25T01:51:19;92350.03;;;7.77;100.00
64402;BME280;50724;42.376;23.768;2023-04-25T01:54:20;92349.22;;;7.76;100.00
64402;BME280;50724;42.376;23.768;2023-04-25T01:57:20;92356.91;;;7.70;100.00
64402;BME280;50724;42.376;23.768;2023-04-25T02:00:21;92366.34;;;7.62;100.00
64402;BME280;50724;42.376;23.768;2023-04-25T02:03:21;92366.53;;;7.61;100.00
64402;BME280;50724;42.376;23.768;2023-04-25T02:06:22;92357.91;;;7.60;100.00
64402;BME280;50724;42.376;23.768;2023-04-25T02:09:22;92356.38;;;7.74;100.00
64402;BME280;50724;42.376;23.768;2023-04-25T02:12:23;92351.16;;;7.82;100.00
64402;BME280;50724;42.376;23.768;2023-04-25T02:15:23;92359.34;;;7.71;100.00
64402;BME280;50724;42.376;23.768;2023-04-25T02:18:24;92357.22;;;7.75;100.00
64402;BME280;50724;42.376;23.768;2023-04-25T02:21:26;92348.44;;;7.68;100.00
64402;BME280;50724;42.376;23.768;2023-04-25T02:24:26;92355.34;;;7.44;100.00
64402;BME280;50724;42.376;23.768;2023-04-25T02:27:28;92352.91;;;7.43;100.00
64402;BME280;50724;42.376;23.768;2023-04-25T02:30:28;92354.09;;;7.16;100.00
64402;BME280;50724;42.376;23.768;2023-04-25T02:33:28;92347.06;;;7.33;100.00
64402;BME280;50724;42.376;23.768;2023-04-25T02:36:29;92343.19;;;7.13;100.00
64402;BME280;50724;42.376;23.768;2023-04-25T02:39:32;92341.22;;;7.31;100.00
64402;BME280;50724;42.376;23.768;2023-04-25T02:42:32;92329.72;;;7.17;100.00
64402;BME280;50724;42.376;23.768;2023-04-25T02:45:33;92329.72;;;7.17;100.00
64402;BME280;50724;42.376;23.768;2023-04-25T02:48:33;92327.09;;;7.33;100.00
64402;BME280;50724;42.376;23.768;2023-04-25T02:51:34;92331.69;;;6.75;100.00
64402;BME280;50724;42.376;23.768;2023-04-25T02:54:44;92325.53;;;6.84;100.00
64402;BME280;50724;42.376;23.768;2023-04-25T02:57:44;92322.41;;;6.97;100.00
64402;BME280;50724;42.376;23.768;2023-04-25T03:00:45;92321.59;;;7.12;100.00
64402;BME280;50724;42.376;23.768;2023-04-25T03:03:45;92316.53;;;7.19;100.00
64402;BME280;50724;42.376;23.768;2023-04-25T03:06:54;92328.75;;;6.78;100.00
64402;BME280;50724;42.376;23.768;2023-04-25T03:09:55;92323.22;;;6.57;100.00
64402;BME280;50724;42.376;23.768;2023-04-25T03:12:56;92326.81;;;6.56;100.00
64402;BME280;50724;42.376;23.768;2023-04-25T03:15:57;92324.69;;;6.43;100.00
64402;BME280;50724;42.376;23.768;2023-04-25T03:18:57;92318.50;;;6.28;100.00
64402;BME280;50724;42.376;23.768;2023-04-25T03:21:58;92327.09;;;6.29;100.00
64402;BME280;50724;42.376;23.768;2023-04-25T03:24:58;92323.47;;;5.97;100.00
64402;BME280;50724;42.376;23.768;2023-04-25T03:27:58;92317.09;;;5.92;100.00
64402;BME280;50724;42.376;23.768;2023-04-25T03:30:59;92331.81;;;5.83;100.00
64402;BME280;50724;42.376;23.768;2023-04-25T03:33:59;92331.72;;;6.01;100.00
64402;BME280;50724;42.376;23.768;2023-04-25T03:37:00;92326.03;;;5.89;100.00
64402;BME280;50724;42.376;23.768;2023-04-25T03:40:00;92322.94;;;5.94;100.00
64402;BME280;50724;42.376;23.768;2023-04-25T03:43:01;92332.19;;;5.96;100.00
64402;BME280;50724;42.376;23.768;2023-04-25T03:46:10;92333.38;;;6.10;100.00
64402;BME280;50724;42.376;23.768;2023-04-25T03:49:10;92329.50;;;6.14;100.00
64402;BME280;50724;42.376;23.768;2023-04-25T03:52:11;92325.44;;;6.11;100.00
64402;BME280;50724;42.376;23.768;2023-04-25T03:55:11;92329.81;;;6.11;100.00
64402;BME280;50724;42.376;23.768;2023-04-25T03:58:11;92331.78;;;6.25;100.00
64402;BME280;50724;42.376;23.768;2023-04-25T04:01:12;92333.41;;;6.18;100.00
64402;BME280;50724;42.376;23.768;2023-04-25T04:04:12;92332.81;;;6.48;100.00
64402;BME280;50724;42.376;23.768;2023-04-25T04:07:13;92335.75;;;6.85;100.00
64402;BME280;50724;42.376;23.768;2023-04-25T04:10:13;92345.63;;;6.50;100.00
64402;BME280;50724;42.376;23.768;2023-04-25T04:13:14;92344.81;;;6.57;100.00
64402;BME280;50724;42.376;23.768;2023-04-25T04:16:14;92344.97;;;6.80;100.00
64402;BME280;50724;42.376;23.768;2023-04-25T04:19:15;92342.66;;;7.96;100.00
64402;BME280;50724;42.376;23.768;2023-04-25T04:22:15;92338.34;;;8.50;100.00
64402;BME280;50724;42.376;23.768;2023-04-25T04:25:16;92336.53;;;9.19;100.00
64402;BME280;50724;42.376;23.768;2023-04-25T04:28:16;92347.03;;;10.21;100.00
64402;BME280;50724;42.376;23.768;2023-04-25T04:31:17;92351.19;;;12.47;94.22
64402;BME280;50724;42.376;23.768;2023-04-25T04:34:19;92349.56;;;13.98;81.79
64402;BME280;50724;42.376;23.768;2023-04-25T04:37:20;92349.63;;;16.18;71.02
64402;BME280;50724;42.376;23.768;2023-04-25T04:40:21;92353.59;;;16.88;68.17
64402;BME280;50724;42.376;23.768;2023-04-25T04:43:21;92352.81;;;18.23;61.99
64402;BME280;50724;42.376;23.768;2023-04-25T04:46:23;92357.72;;;17.13;65.21
64402;BME280;50724;42.376;23.768;2023-04-25T04:49:24;92346.41;;;15.73;70.02
64402;BME280;50724;42.376;23.768;2023-04-25T04:52:25;92345.50;;;14.34;76.57
64402;BME280;50724;42.376;23.768;2023-04-25T04:55:25;92354.16;;;12.97;83.28
64402;BME280;50724;42.376;23.768;2023-04-25T04:58:26;92353.50;;;11.39;91.69
64402;BME280;50724;42.376;23.768;2023-04-25T05:01:29;92352.06;;;10.73;96.96
64402;BME280;50724;42.376;23.768;2023-04-25T05:04:32;92337.31;;;11.07;96.35
64402;BME280;50724;42.376;23.768;2023-04-25T05:07:33;92353.00;;;11.07;97.06
64402;BME280;50724;42.376;23.768;2023-04-25T05:10:34;92343.22;;;11.16;96.76
64402;BME280;50724;42.376;23.768;2023-04-25T05:13:34;92351.56;;;11.05;96.08
64402;BME280;50724;42.376;23.768;2023-04-25T05:16:34;92348.28;;;10.96;97.29
64402;BME280;50724;42.376;23.768;2023-04-25T05:19:35;92345.16;;;11.07;96.86
64402;BME280;50724;42.376;23.768;2023-04-25T05:22:35;92351.44;;;10.71;98.94
64402;BME280;50724;42.376;23.768;2023-04-25T05:25:36;92343.88;;;10.97;98.71
64402;BME280;50724;42.376;23.768;2023-04-25T05:28:36;92346.53;;;11.25;98.32
64402;BME280;50724;42.376;23.768;2023-04-25T05:31:37;92339.38;;;10.91;99.90
64402;BME280;50724;42.376;23.768;2023-04-25T05:34:37;92347.31;;;10.62;100.00
64402;BME280;50724;42.376;23.768;2023-04-25T05:37:38;92356.72;;;10.42;100.00
64402;BME280;50724;42.376;23.768;2023-04-25T05:40:38;92344.47;;;10.42;100.00
64402;BME280;50724;42.376;23.768;2023-04-25T05:43:38;92345.34;;;10.64;100.00
64402;BME280;50724;42.376;23.768;2023-04-25T05:46:39;92345.91;;;10.45;100.00
64402;BME280;50724;42.376;23.768;2023-04-25T05:49:39;92342.06;;;10.41;100.00
64402;BME280;50724;42.376;23.768;2023-04-25T05:52:40;92346.19;;;10.50;100.00
64402;BME280;50724;42.376;23.768;2023-04-25T05:55:40;92347.56;;;10.31;99.33
64402;BME280;50724;42.376;23.768;2023-04-25T05:58:40;92342.09;;;10.62;97.65
64402;BME280;50724;42.376;23.768;2023-04-25T06:01:41;92344.78;;;10.68;99.94
64402;BME280;50724;42.376;23.768;2023-04-25T06:04:42;92345.28;;;10.99;100.00
64402;BME280;50724;42.376;23.768;2023-04-25T06:07:42;92337.13;;;11.09;100.00
64402;BME280;50724;42.376;23.768;2023-04-25T06:10:43;92344.53;;;11.27;100.00
64402;BME280;50724;42.376;23.768;2023-04-25T06:13:44;92347.94;;;11.69;99.06
64402;BME280;50724;42.376;23.768;2023-04-25T06:16:44;92345.97;;;11.78;98.66
64402;BME280;50724;42.376;23.768;2023-04-25T06:19:45;92349.91;;;11.67;97.28
64402;BME280;50724;42.376;23.768;2023-04-25T06:22:45;92346.03;;;11.91;97.72
64402;BME280;50724;42.376;23.768;2023-04-25T06:25:46;92343.38;;;11.85;96.45
64402;BME280;50724;42.376;23.768;2023-04-25T06:28:46;92340.28;;;11.74;97.33
64402;BME280;50724;42.376;23.768;2023-04-25T06:31:47;92349.09;;;11.67;96.87
64402;BME280;50724;42.376;23.768;2023-04-25T06:34:47;92347.09;;;11.97;94.93
64402;BME280;50724;42.376;23.768;2023-04-25T06:37:47;92349.94;;;12.02;95.11
64402;BME280;50724;42.376;23.768;2023-04-25T06:40:48;92354.22;;;12.09;93.34
64402;BME280;50724;42.376;23.768;2023-04-25T06:43:48;92355.06;;;12.16;91.88
64402;BME280;50724;42.376;23.768;2023-04-25T06:46:49;92355.44;;;12.13;92.11
64402;BME280;50724;42.376;23.768;2023-04-25T06:49:49;92354.41;;;12.08;93.40
64402;BME280;50724;42.376;23.768;2023-04-25T06:52:50;92355.66;;;12.12;92.58
64402;BME280;50724;42.376;23.768;2023-04-25T06:55:50;92352.28;;;11.90;93.28
64402;BME280;50724;42.376;23.768;2023-04-25T06:58:51;92352.19;;;11.56;94.68
64402;BME280;50724;42.376;23.768;2023-04-25T07:01:51;92362.44;;;11.72;93.59
64402;BME280;50724;42.376;23.768;2023-04-25T07:04:51;92358.00;;;11.51;93.54
64402;BME280;50724;42.376;23.768;2023-04-25T07:07:52;92356.91;;;11.88;94.97
64402;BME280;50724;42.376;23.768;2023-04-25T07:10:52;92359.72;;;12.21;92.77
64402;BME280;50724;42.376;23.768;2023-04-25T07:13:53;92359.50;;;12.63;89.75
64402;BME280;50724;42.376;23.768;2023-04-25T07:16:53;92360.00;;;12.93;88.77
64402;BME280;50724;42.376;23.768;2023-04-25T07:19:56;92357.47;;;13.13;88.51
64402;BME280;50724;42.376;23.768;2023-04-25T07:22:57;92355.06;;;13.37;85.80
64402;BME280;50724;42.376;23.768;2023-04-25T07:25:57;92357.88;;;13.55;85.60
64402;BME280;50724;42.376;23.768;2023-04-25T07:28:58;92358.09;;;13.47;85.82
64402;BME280;50724;42.376;23.768;2023-04-25T07:31:58;92346.38;;;13.89;85.27
64402;BME280;50724;42.376;23.768;2023-04-25T07:34:59;92348.13;;;14.21;83.35
64402;BME280;50724;42.376;23.768;2023-04-25T07:37:59;92350.03;;;14.72;83.20
64402;BME280;50724;42.376;23.768;2023-04-25T07:41:00;92341.94;;;14.67;80.36
64402;BME280;50724;42.376;23.768;2023-04-25T07:44:00;92339.38;;;14.91;82.59
64402;BME280;50724;42.376;23.768;2023-04-25T07:47:01;92346.41;;;15.04;81.70
64402;BME280;50724;42.376;23.768;2023-04-25T07:50:02;92343.75;;;15.10;81.27
64402;BME280;50724;42.376;23.768;2023-04-25T07:53:03;92341.00;;;15.86;79.70
64402;BME280;50724;42.376;23.768;2023-04-25T07:56:06;92345.41;;;16.35;77.41
64402;BME280;50724;42.376;23.768;2023-04-25T07:59:07;92342.72;;;15.99;79.12
64402;BME280;50724;42.376;23.768;2023-04-25T08:02:08;92339.88;;;16.61;76.69
64402;BME280;50724;42.376;23.768;2023-04-25T08:05:08;92339.09;;;16.90;74.48
64402;BME280;50724;42.376;23.768;2023-04-25T08:08:11;92351.34;;;15.63;76.05
64402;BME280;50724;42.376;23.768;2023-04-25T08:11:12;92351.44;;;15.74;77.60
64402;BME280;50724;42.376;23.768;2023-04-25T08:14:12;92351.44;;;15.74;75.57
64402;BME280;50724;42.376;23.768;2023-04-25T08:17:13;92356.09;;;16.22;74.69
64402;BME280;50724;42.376;23.768;2023-04-25T08:20:13;92355.22;;;16.53;73.79
64402;BME280;50724;42.376;23.768;2023-04-25T08:23:22;92355.88;;;17.14;70.55
64402;BME280;50724;42.376;23.768;2023-04-25T08:26:32;92345.91;;;17.16;66.51
64402;BME280;50724;42.376;23.768;2023-04-25T08:29:33;92358.44;;;17.50;69.42
64402;BME280;50724;42.376;23.768;2023-04-25T08:32:34;92349.78;;;17.43;66.97
64402;BME280;50724;42.376;23.768;2023-04-25T08:35:38;92352.00;;;17.46;62.90
64402;BME280;50724;42.376;23.768;2023-04-25T08:38:38;92351.66;;;16.95;67.16
64402;BME280;50724;42.376;23.768;2023-04-25T08:41:40;92343.69;;;16.04;67.29
64402;BME280;50724;42.376;23.768;2023-04-25T08:44:40;92351.28;;;15.07;72.99
64402;BME280;50724;42.376;23.768;2023-04-25T08:47:42;92346.72;;;15.21;69.99
64402;BME280;50724;42.376;23.768;2023-04-25T08:53:49;92338.88;;;15.45;61.89
64402;BME280;50724;42.376;23.768;2023-04-25T08:56:50;92336.34;;;15.63;61.09
64402;BME280;50724;42.376;23.768;2023-04-25T08:59:52;92335.41;;;15.51;58.23
64402;BME280;50724;42.376;23.768;2023-04-25T09:02:53;92328.88;;;15.23;57.18
64402;BME280;50724;42.376;23.768;2023-04-25T09:05:55;92336.25;;;15.07;59.19
64402;BME280;50724;42.376;23.768;2023-04-25T09:09:06;92333.94;;;14.93;55.61
64402;BME280;50724;42.376;23.768;2023-04-25T09:12:07;92327.59;;;15.32;56.16
64402;BME280;50724;42.376;23.768;2023-04-25T09:15:10;92316.56;;;15.97;53.25
64402;BME280;50724;42.376;23.768;2023-04-25T09:18:11;92321.03;;;15.72;53.65
64402;BME280;50724;42.376;23.768;2023-04-25T09:21:12;92322.00;;;16.20;53.16
64402;BME280;50724;42.376;23.768;2023-04-25T09:24:13;92311.97;;;16.47;50.88
64402;BME280;50724;42.376;23.768;2023-04-25T09:27:19;92304.97;;;16.59;49.06
64402;BME280;50724;42.376;23.768;2023-04-25T09:30:29;92312.88;;;17.07;51.29
64402;BME280;50724;42.376;23.768;2023-04-25T09:33:32;92299.34;;;17.15;47.43
64402;BME280;50724;42.376;23.768;2023-04-25T09:36:34;92293.75;;;16.93;48.73
64402;BME280;50724;42.376;23.768;2023-04-25T09:39:34;92291.44;;;16.31;49.35
64402;BME280;50724;42.376;23.768;2023-04-25T09:42:35;92283.97;;;15.92;50.58
64402;BME280;50724;42.376;23.768;2023-04-25T09:45:41;92276.13;;;15.60;49.55
64402;BME280;50724;42.376;23.768;2023-04-25T09:48:50;92276.28;;;16.08;51.23
64402;BME280;50724;42.376;23.768;2023-04-25T09:51:57;92268.53;;;16.31;46.26
64402;BME280;50724;42.376;23.768;2023-04-25T09:54:58;92267.50;;;17.10;48.59
64402;BME280;50724;42.376;23.768;2023-04-25T09:58:05;92263.41;;;17.67;47.12
64402;BME280;50724;42.376;23.768;2023-04-25T10:01:10;92253.44;;;17.28;44.60
64402;BME280;50724;42.376;23.768;2023-04-25T10:04:11;92249.72;;;17.17;40.90
64402;BME280;50724;42.376;23.768;2023-04-25T10:07:12;92248.56;;;17.54;44.59
64402;BME280;50724;42.376;23.768;2023-04-25T10:10:13;92243.97;;;17.08;43.81
64402;BME280;50724;42.376;23.768;2023-04-25T10:13:14;92242.97;;;17.44;42.06
64402;BME280;50724;42.376;23.768;2023-04-25T10:16:15;92227.13;;;17.44;41.66
64402;BME280;50724;42.376;23.768;2023-04-25T10:19:16;92237.53;;;17.57;39.92
64402;BME280;50724;42.376;23.768;2023-04-25T10:22:23;92235.34;;;17.54;41.73
64402;BME280;50724;42.376;23.768;2023-04-25T10:25:26;92230.34;;;17.35;43.11
64402;BME280;50724;42.376;23.768;2023-04-25T10:28:26;92224.72;;;17.43;44.31
64402;BME280;50724;42.376;23.768;2023-04-25T10:31:31;92219.50;;;17.13;40.95
64402;BME280;50724;42.376;23.768;2023-04-25T10:34:42;92221.81;;;16.80;43.20
64402;BME280;50724;42.376;23.768;2023-04-25T10:38:03;92224.97;;;16.40;45.67
64402;BME280;50724;42.376;23.768;2023-04-25T10:41:09;92227.09;;;16.14;47.93
64402;BME280;50724;42.376;23.768;2023-04-25T10:44:10;92228.16;;;15.52;46.87
64402;BME280;50724;42.376;23.768;2023-04-25T10:47:10;92220.00;;;15.04;46.51
64402;BME280;50724;42.376;23.768;2023-04-25T10:50:11;92213.34;;;15.01;44.73
64402;BME280;50724;42.376;23.768;2023-04-25T10:53:14;92219.72;;;15.61;42.98
64402;BME280;50724;42.376;23.768;2023-04-25T10:56:17;92221.84;;;15.53;42.31
64402;BME280;50724;42.376;23.768;2023-04-25T10:59:19;92218.50;;;15.64;42.99
64402;BME280;50724;42.376;23.768;2023-04-25T11:02:20;92217.69;;;16.18;42.11
64402;BME280;50724;42.376;23.768;2023-04-25T11:05:33;92222.41;;;16.16;42.94
64402;BME280;50724;42.376;23.768;2023-04-25T11:08:47;92222.88;;;16.13;40.57
64402;BME280;50724;42.376;23.768;2023-04-25T11:11:58;92222.19;;;15.81;43.80
64402;BME280;50724;42.376;23.768;2023-04-25T11:15:05;92225.44;;;16.01;44.38
64402;BME280;50724;42.376;23.768;2023-04-25T11:18:06;92226.63;;;16.35;43.97
64402;BME280;50724;42.376;23.768;2023-04-25T11:21:06;92227.03;;;15.84;46.61
64402;BME280;50724;42.376;23.768;2023-04-25T11:24:06;92222.06;;;16.12;47.41
64402;BME280;50724;42.376;23.768;2023-04-25T11:27:08;92219.13;;;16.02;47.98
64402;BME280;50724;42.376;23.768;2023-04-25T11:30:15;92228.84;;;16.02;47.24
64402;BME280;50724;42.376;23.768;2023-04-25T11:33:16;92232.81;;;16.11;46.19
64402;BME280;50724;42.376;23.768;2023-04-25T11:36:17;92240.59;;;16.24;44.48
64402;BME280;50724;42.376;23.768;2023-04-25T11:39:20;92242.25;;;16.36;44.97
64402;BME280;50724;42.376;23.768;2023-04-25T11:42:21;92229.72;;;17.09;43.46
64402;BME280;50724;42.376;23.768;2023-04-25T11:45:22;92239.28;;;16.81;50.71
64402;BME280;50724;42.376;23.768;2023-04-25T11:48:23;92218.28;;;15.65;52.76
64402;BME280;50724;42.376;23.768;2023-04-25T11:51:23;92223.50;;;15.23;55.66
64402;BME280;50724;42.376;23.768;2023-04-25T11:54:24;92208.13;;;16.05;51.65
64402;BME280;50724;42.376;23.768;2023-04-25T11:57:24;92180.72;;;16.84;51.52
64402;BME280;50724;42.376;23.768;2023-04-25T12:00:25;92202.91;;;16.94;48.11
64402;BME280;50724;42.376;23.768;2023-04-25T12:03:26;92203.06;;;16.70;49.98
64402;BME280;50724;42.376;23.768;2023-04-25T12:06:31;92203.13;;;16.52;46.47
64402;BME280;50724;42.376;23.768;2023-04-25T12:09:33;92200.63;;;16.20;47.51
64402;BME280;50724;42.376;23.768;2023-04-25T12:12:44;92187.44;;;15.48;49.62
64402;BME280;50724;42.376;23.768;2023-04-25T12:15:45;92191.53;;;15.62;48.79
64402;BME280;50724;42.376;23.768;2023-04-25T12:18:46;92188.19;;;15.91;49.75
64402;BME280;50724;42.376;23.768;2023-04-25T12:21:47;92196.16;;;16.21;48.13
64402;BME280;50724;42.376;23.768;2023-04-25T12:24:48;92217.44;;;16.08;51.34
64402;BME280;50724;42.376;23.768;2023-04-25T12:27:48;92210.22;;;15.36;53.31
64402;BME280;50724;42.376;23.768;2023-04-25T12:33:54;92214.28;;;14.51;59.14
64402;BME280;50724;42.376;23.768;2023-04-25T12:36:54;92219.47;;;14.95;58.08
64402;BME280;50724;42.376;23.768;2023-04-25T12:39:56;92221.25;;;15.01;53.31
64402;BME280;50724;42.376;23.768;2023-04-25T12:42:56;92217.38;;;15.53;51.66
64402;BME280;50724;42.376;23.768;2023-04-25T12:45:57;92223.41;;;15.97;51.41
64402;BME280;50724;42.376;23.768;2023-04-25T12:48:58;92209.47;;;15.04;53.45
64402;BME280;50724;42.376;23.768;2023-04-25T12:51:58;92212.97;;;15.23;53.88
64402;BME280;50724;42.376;23.768;2023-04-25T12:54:58;92215.81;;;14.96;53.65
64402;BME280;50724;42.376;23.768;2023-04-25T12:57:59;92215.16;;;15.01;55.05
64402;BME280;50724;42.376;23.768;2023-04-25T13:00:59;92218.47;;;15.21;56.02
64402;BME280;50724;42.376;23.768;2023-04-25T13:04:00;92215.38;;;14.68;55.18
64402;BME280;50724;42.376;23.768;2023-04-25T13:07:00;92227.19;;;14.59;57.51
64402;BME280;50724;42.376;23.768;2023-04-25T13:10:01;92225.28;;;14.41;62.58
64402;BME280;50724;42.376;23.768;2023-04-25T13:13:02;92219.47;;;14.20;61.32
64402;BME280;50724;42.376;23.768;2023-04-25T13:16:03;92218.03;;;13.53;64.58
64402;BME280;50724;42.376;23.768;2023-04-25T13:19:04;92225.38;;;13.19;66.28
64402;BME280;50724;42.376;23.768;2023-04-25T13:22:05;92233.84;;;13.27;66.19
64402;BME280;50724;42.376;23.768;2023-04-25T13:25:07;92236.88;;;13.11;66.16
64402;BME280;50724;42.376;23.768;2023-04-25T13:28:08;92232.81;;;12.82;66.15
64402;BME280;50724;42.376;23.768;2023-04-25T13:31:08;92238.41;;;12.66;68.40
64402;BME280;50724;42.376;23.768;2023-04-25T13:34:09;92228.13;;;12.58;66.03
64402;BME280;50724;42.376;23.768;2023-04-25T13:37:10;92233.19;;;12.66;66.67
64402;BME280;50724;42.376;23.768;2023-04-25T13:40:11;92233.78;;;12.55;65.78
64402;BME280;50724;42.376;23.768;2023-04-25T13:43:12;92231.38;;;12.73;65.71
64402;BME280;50724;42.376;23.768;2023-04-25T13:46:12;92228.56;;;12.88;65.31
64402;BME280;50724;42.376;23.768;2023-04-25T13:49:14;92231.19;;;12.94;66.61
64402;BME280;50724;42.376;23.768;2023-04-25T13:52:14;92225.75;;;13.02;64.24
64402;BME280;50724;42.376;23.768;2023-04-25T13:55:15;92224.94;;;12.89;64.29
64402;BME280;50724;42.376;23.768;2023-04-25T13:58:15;92220.91;;;12.99;65.80
64402;BME280;50724;42.376;23.768;2023-04-25T14:01:16;92212.00;;;12.87;65.79
64402;BME280;50724;42.376;23.768;2023-04-25T14:04:18;92217.06;;;12.89;66.84
64402;BME280;50724;42.376;23.768;2023-04-25T14:07:19;92205.53;;;12.90;66.13
64402;BME280;50724;42.376;23.768;2023-04-25T14:10:23;92220.28;;;12.97;67.94
64402;BME280;50724;42.376;23.768;2023-04-25T14:13:24;92220.09;;;12.92;67.60
64402;BME280;50724;42.376;23.768;2023-04-25T14:16:25;92232.59;;;12.97;66.67
64402;BME280;50724;42.376;23.768;2023-04-25T14:19:25;92226.78;;;13.28;66.70
64402;BME280;50724;42.376;23.768;2023-04-25T14:22:35;92217.84;;;13.48;66.61
64402;BME280;50724;42.376;23.768;2023-04-25T14:25:36;92222.31;;;13.41;67.44
64402;BME280;50724;42.376;23.768;2023-04-25T14:28:36;92224.06;;;13.67;67.52
64402;BME280;50724;42.376;23.768;2023-04-25T14:31:37;92227.56;;;13.54;69.12
64402;BME280;50724;42.376;23.768;2023-04-25T14:34:39;92217.69;;;13.24;68.60
64402;BME280;50724;42.376;23.768;2023-04-25T14:37:40;92207.19;;;13.17;69.16
64402;BME280;50724;42.376;23.768;2023-04-25T14:40:40;92215.03;;;13.50;68.37
64402;BME280;50724;42.376;23.768;2023-04-25T14:43:41;92225.75;;;13.42;66.94
64402;BME280;50724;42.376;23.768;2023-04-25T14:46:41;92215.63;;;13.39;65.59
64402;BME280;50724;42.376;23.768;2023-04-25T14:49:42;92220.13;;;13.38;65.35
64402;BME280;50724;42.376;23.768;2023-04-25T14:52:43;92219.00;;;13.72;63.28
64402;BME280;50724;42.376;23.768;2023-04-25T14:55:45;92223.06;;;13.68;63.98
64402;BME280;50724;42.376;23.768;2023-04-25T14:58:45;92217.28;;;13.14;64.84
64402;BME280;50724;42.376;23.768;2023-04-25T15:01:46;92220.94;;;14.03;63.03
64402;BME280;50724;42.376;23.768;2023-04-25T15:04:46;92219.88;;;14.61;61.98
64402;BME280;50724;42.376;23.768;2023-04-25T15:07:47;92207.13;;;14.14;62.54
64402;BME280;50724;42.376;23.768;2023-04-25T15:10:48;92211.09;;;13.92;64.91
64402;BME280;50724;42.376;23.768;2023-04-25T15:13:48;92202.78;;;13.88;63.74
64402;BME280;50724;42.376;23.768;2023-04-25T15:16:49;92203.16;;;13.98;63.03
64402;BME280;50724;42.376;23.768;2023-04-25T15:19:49;92194.28;;;13.99;62.08
64402;BME280;50724;42.376;23.768;2023-04-25T15:22:50;92182.81;;;13.74;61.50
64402;BME280;50724;42.376;23.768;2023-04-25T15:25:51;92179.72;;;13.00;63.63
64402;BME280;50724;42.376;23.768;2023-04-25T15:28:52;92177.09;;;13.00;64.94
64402;BME280;50724;42.376;23.768;2023-04-25T15:31:53;92177.69;;;13.02;65.79
64402;BME280;50724;42.376;23.768;2023-04-25T15:34:53;92167.78;;;13.04;65.19
64402;BME280;50724;42.376;23.768;2023-04-25T15:37:53;92159.94;;;12.97;66.69
64402;BME280;50724;42.376;23.768;2023-04-25T15:40:54;92160.53;;;12.86;67.35
64402;BME280;50724;42.376;23.768;2023-04-25T15:43:54;92154.28;;;12.74;66.99
64402;BME280;50724;42.376;23.768;2023-04-25T15:46:55;92151.66;;;12.41;68.94
64402;BME280;50724;42.376;23.768;2023-04-25T15:49:55;92142.97;;;12.48;69.80
64402;BME280;50724;42.376;23.768;2023-04-25T15:52:56;92135.69;;;12.30;70.94
64402;BME280;50724;42.376;23.768;2023-04-25T15:55:57;92136.69;;;12.09;71.31